RJFE(METAR)
07/27 17:00
METAR RJFE 270800Z 16004KT 110V190 9999 FEW030 30/23 Q1001 RMK
1CU030 A2957=
戻る
トップページへ戻る
IMOC Co,.Ltd.